Lehigh Valley International Airport
KABE : now visible

Airfield :











YOU CAN JOIN US ON...

 
LOGIN :

Register | Disclaimer

   EN    FR    IT 

 









Legend :    VFR   Marginal VFR   IFR   Intensive IFR   Very Intensive IFR
Visi :
Ceiling :
>= 8 km
>= 3000ft
5 to 8 km
1000 to 3000 ft
1500m to 5 km
500 to 1000 ft
800 to 1500m
200 to 500 ft
< 800m
< 200 ft
Symbols :   Thunderstorms  Fog  Heavy snow  Heavy precipitations  Wind > 20 kt






- Airport Elevation : 393 ft
- IATA code : ABE


KABE - Lehigh Valley International

CURRENT METAR :
  • 211551Z 22004KT 10SM OVC008 18/16 A3028 RMK AO2 SLP253 T01780156

EXPIRED METARs :
  • 211451Z 16003KT 10SM OVC007 17/15 A3029 RMK AO2 SLP256 T01720150 50004
  • 211351Z 16003KT 8SM OVC005 16/14 A3029 RMK AO2 SLP258 T01610144

TAF KABE
Valid from the 21 at 16:00 until the 22 at 12:00 UTC


211543Z 2116/2212 20005KT P6SM BKN025
TEMPO 2116/2117 OVC007
FM211900 21008KT P6SM SCT110
FM220400 VRB02KT 3SM BR SCT010
KZNY FIR / North America



MET'MAP, your aeronautical weather chart ! - Copyright ORBIFLY December 2007 - Disclaimer

ORBIFLY MET'MAP TEAM :

Programming & Development : Alexandra Zaïnal
Concept & original design : Baudouin d'Aumeries
Assistance for programming : Marc-Olivier Méhu
Technical & hardware support : Manuel Goepfert

Contact : metmap@orbifly.com




SOURCES & CREDITS :

   NOAA       Earth
Advisory